Time;durP1;ratioP1;P1;durP2;ratioP2;P2;SDS_P1;SDS_P2;PMS_P1;PMS_P2;Temp;Humidity;BMP_temperature;BMP_pressure;BME280_temperature;BME280_humidity;BME280_pressure;Samples;Min_cycle;Max_cycle;Signal;HPM_P1;HPM_P2
2021/10/29 00:00:39;;;;;;;83.10;38.47;;;5.10;99.90;;;;;;5054323;28;20047;-65
2021/10/29 00:03:06;;;;;;;82.15;37.45;;;5.20;99.90;;;;;;5052940;28;20029;-65
2021/10/29 00:05:34;;;;;;;84.47;39.08;;;5.10;99.90;;;;;;5054182;28;20036;-64
2021/10/29 00:07:59;;;;;;;78.80;35.05;;;5.10;99.90;;;;;;5053313;28;20071;-64
2021/10/29 00:10:26;;;;;;;83.28;38.47;;;5.10;99.90;;;;;;5053780;28;20382;-65
2021/10/29 00:12:52;;;;;;;90.70;39.92;;;5.10;99.90;;;;;;5053322;28;20044;-64
2021/10/29 00:15:18;;;;;;;85.28;37.15;;;5.10;99.90;;;;;;5052828;28;20048;-65
2021/10/29 00:17:44;;;;;;;80.07;38.25;;;5.10;99.90;;;;;;5053875;28;20025;-64
2021/10/29 00:20:11;;;;;;;87.30;39.70;;;5.10;99.90;;;;;;5053348;28;20056;-65
2021/10/29 00:22:38;;;;;;;67.88;33.83;;;5.10;99.90;;;;;;5053501;28;20035;-65
2021/10/29 00:25:04;;;;;;;87.97;41.15;;;5.10;99.90;;;;;;5052934;28;20386;-65
2021/10/29 00:27:30;;;;;;;93.47;41.45;;;5.10;99.90;;;;;;5053584;28;20021;-65
2021/10/29 00:29:55;;;;;;;75.90;34.22;;;5.10;99.90;;;;;;5053778;28;20446;-65
2021/10/29 00:32:22;;;;;;;90.00;38.88;;;5.10;99.90;;;;;;5052701;28;20073;-64
2021/10/29 00:34:48;;;;;;;79.28;36.47;;;5.00;99.90;;;;;;5053300;28;20034;-64
2021/10/29 00:37:14;;;;;;;63.10;32.30;;;5.00;99.90;;;;;;5052565;28;20044;-64
2021/10/29 00:39:40;;;;;;;74.97;34.92;;;4.90;99.90;;;;;;5053669;28;20017;-64
2021/10/29 00:42:06;;;;;;;79.10;35.10;;;4.90;99.90;;;;;;5052230;28;20120;-64
2021/10/29 00:44:32;;;;;;;69.70;33.70;;;4.80;99.90;;;;;;5053418;28;20061;-65
2021/10/29 00:46:57;;;;;;;79.15;34.08;;;4.80;99.90;;;;;;5053101;28;20064;-64
2021/10/29 00:49:23;;;;;;;83.93;38.35;;;4.70;99.90;;;;;;5051904;28;20043;-65
2021/10/29 00:51:49;;;;;;;87.22;38.90;;;4.70;99.90;;;;;;5053236;28;20053;-64
2021/10/29 00:54:17;;;;;;;86.93;38.58;;;4.80;99.90;;;;;;5052433;28;20053;-64
2021/10/29 00:56:44;;;;;;;96.00;40.05;;;4.80;99.90;;;;;;5053268;28;20040;-65
2021/10/29 00:59:10;;;;;;;84.68;37.28;;;4.70;99.90;;;;;;5052395;28;20033;-65
2021/10/29 01:01:36;;;;;;;84.90;37.35;;;4.70;99.90;;;;;;5052857;28;20467;-65
2021/10/29 01:04:03;;;;;;;82.78;36.00;;;4.70;99.90;;;;;;5052415;28;20013;-65
2021/10/29 01:06:29;;;;;;;86.80;39.25;;;4.70;99.90;;;;;;5053197;28;20051;-65
2021/10/29 01:08:54;;;;;;;78.85;35.88;;;4.70;99.90;;;;;;5051691;28;20024;-65
2021/10/29 01:11:21;;;;;;;78.30;34.92;;;4.60;99.90;;;;;;5051896;28;20028;-65
2021/10/29 01:13:47;;;;;;;76.43;36.17;;;4.50;99.90;;;;;;5052644;28;20052;-65
2021/10/29 01:16:14;;;;;;;97.00;42.05;;;4.50;99.90;;;;;;5051782;28;20474;-65
2021/10/29 01:18:40;;;;;;;104.93;41.65;;;4.50;99.90;;;;;;5052587;28;20102;-64
2021/10/29 01:21:06;;;;;;;109.15;42.55;;;4.60;99.90;;;;;;5051551;28;20025;-64
2021/10/29 01:23:36;;;;;;;102.28;41.90;;;4.60;99.90;;;;;;5051502;28;20462;-64
2021/10/29 01:26:05;;;;;;;100.90;44.38;;;4.70;99.90;;;;;;5052367;28;20477;-64
2021/10/29 01:28:31;;;;;;;111.53;45.22;;;4.70;99.90;;;;;;5040855;28;20067;-64
2021/10/29 01:30:56;;;;;;;105.55;42.72;;;4.80;99.90;;;;;;5052618;28;20374;-64
2021/10/29 01:33:22;;;;;;;91.65;40.67;;;4.80;99.90;;;;;;5051624;28;20692;-64
2021/10/29 01:35:48;;;;;;;102.72;41.90;;;4.80;99.90;;;;;;5052266;28;20033;-64
2021/10/29 01:38:14;;;;;;;91.75;41.17;;;4.80;99.90;;;;;;5051694;28;20028;-64
2021/10/29 01:40:40;;;;;;;101.85;44.15;;;4.80;99.90;;;;;;5052215;28;20106;-65
2021/10/29 01:43:06;;;;;;;86.43;39.50;;;4.80;99.90;;;;;;5051148;28;20032;-64
2021/10/29 01:45:34;;;;;;;98.25;40.83;;;4.70;99.90;;;;;;5052345;28;20057;-64
2021/10/29 01:48:00;;;;;;;117.85;47.47;;;4.70;99.90;;;;;;5052841;28;20028;-65
2021/10/29 01:50:26;;;;;;;112.35;44.75;;;4.70;99.90;;;;;;5051564;28;20025;-64
2021/10/29 01:52:51;;;;;;;113.63;45.58;;;4.70;99.90;;;;;;5051762;28;20532;-64
2021/10/29 01:55:17;;;;;;;105.63;42.80;;;4.70;99.90;;;;;;5049715;28;20067;-64
2021/10/29 01:57:44;;;;;;;114.10;46.47;;;4.70;99.90;;;;;;5052353;28;20079;-65
2021/10/29 02:00:11;;;;;;;131.55;50.78;;;4.70;99.90;;;;;;5050139;28;20023;-65
2021/10/29 02:02:37;;;;;;;117.72;45.70;;;4.70;99.90;;;;;;5050236;28;20033;-64
2021/10/29 02:05:04;;;;;;;137.30;51.95;;;4.70;99.90;;;;;;5051177;28;20025;-64
2021/10/29 02:07:30;;;;;;;120.45;48.50;;;4.70;99.90;;;;;;5052017;28;20032;-65
2021/10/29 02:09:55;;;;;;;118.15;46.45;;;4.80;99.90;;;;;;5051449;28;20029;-64
2021/10/29 02:12:21;;;;;;;118.43;46.50;;;4.70;99.90;;;;;;5050533;28;20025;-65
2021/10/29 02:14:47;;;;;;;96.40;43.67;;;4.70;99.90;;;;;;5051587;28;20117;-65
2021/10/29 02:17:13;;;;;;;99.88;44.72;;;4.70;99.90;;;;;;5051047;28;20032;-65
2021/10/29 02:19:39;;;;;;;93.07;40.75;;;4.80;99.90;;;;;;5044942;28;20386;-66
2021/10/29 02:22:04;;;;;;;80.95;37.88;;;4.70;99.90;;;;;;5050052;28;20076;-65
2021/10/29 02:24:30;;;;;;;85.78;36.38;;;4.60;99.90;;;;;;5051877;28;20037;-65
2021/10/29 02:26:57;;;;;;;102.32;41.42;;;4.50;99.90;;;;;;5051144;28;20476;-66
2021/10/29 02:29:22;;;;;;;101.22;40.90;;;4.50;99.90;;;;;;5051101;28;20090;-65
2021/10/29 02:31:48;;;;;;;98.43;42.22;;;4.40;99.90;;;;;;5051162;28;20108;-65
2021/10/29 02:34:14;;;;;;;88.25;38.40;;;4.40;99.90;;;;;;5049405;28;20469;-66
2021/10/29 02:36:39;;;;;;;83.57;38.35;;;4.30;99.90;;;;;;5051231;28;20461;-65
2021/10/29 02:39:05;;;;;;;98.65;41.47;;;4.20;99.90;;;;;;5050486;28;20414;-65
2021/10/29 02:41:31;;;;;;;103.10;42.45;;;4.20;99.90;;;;;;5051386;28;20382;-65
2021/10/29 02:43:57;;;;;;;122.70;46.28;;;4.20;99.90;;;;;;5050849;28;20476;-65
2021/10/29 02:46:23;;;;;;;112.80;43.13;;;4.20;99.90;;;;;;5050405;28;20183;-64
2021/10/29 02:48:50;;;;;;;125.63;46.63;;;4.20;99.90;;;;;;5050881;28;20029;-65
2021/10/29 02:51:15;;;;;;;130.45;47.67;;;4.20;99.90;;;;;;5050578;28;20025;-65
2021/10/29 02:53:41;;;;;;;122.80;46.22;;;4.30;99.90;;;;;;5051378;28;20029;-65
2021/10/29 02:56:08;;;;;;;110.55;43.28;;;4.30;99.90;;;;;;5050086;28;20044;-65
2021/10/29 02:58:34;;;;;;;102.13;41.55;;;4.30;99.90;;;;;;5051463;28;20025;-66
2021/10/29 03:01:00;;;;;;;115.90;45.83;;;4.30;99.90;;;;;;5051158;28;20025;-65
2021/10/29 03:03:27;;;;;;;100.20;41.15;;;4.30;99.90;;;;;;5050262;28;20024;-65
2021/10/29 03:05:53;;;;;;;93.15;39.00;;;4.30;99.90;;;;;;5051351;28;20040;-65
2021/10/29 03:08:18;;;;;;;83.38;37.55;;;4.20;99.90;;;;;;5050436;28;20033;-65
2021/10/29 03:10:45;;;;;;;89.38;38.75;;;4.20;99.90;;;;;;5051252;28;20029;-65
2021/10/29 03:13:11;;;;;;;87.90;38.42;;;4.10;99.90;;;;;;5050085;28;20040;-65
2021/10/29 03:15:36;;;;;;;102.03;41.10;;;4.00;99.90;;;;;;5065064;28;20040;-64
2021/10/29 03:18:02;;;;;;;105.68;43.50;;;4.00;99.90;;;;;;5051174;28;20100;-64
2021/10/29 03:20:28;;;;;;;107.10;43.88;;;4.00;99.90;;;;;;5050200;28;20032;-65
2021/10/29 03:22:53;;;;;;;90.95;38.92;;;4.00;99.90;;;;;;5051136;28;20454;-65
2021/10/29 03:25:19;;;;;;;95.72;38.13;;;4.00;99.90;;;;;;5050484;28;20037;-65
2021/10/29 03:27:45;;;;;;;84.10;34.97;;;3.90;99.90;;;;;;5050948;28;20032;-65
2021/10/29 03:30:12;;;;;;;82.13;36.72;;;3.80;99.90;;;;;;5050188;28;20104;-65
2021/10/29 03:32:38;;;;;;;80.47;35.00;;;3.70;99.90;;;;;;5052384;28;20021;-65
2021/10/29 03:35:05;;;;;;;88.97;38.78;;;3.70;99.90;;;;;;5054521;28;20033;-65
2021/10/29 03:42:48;;;;;;;82.90;35.40;;;3.60;99.90;;;;;;5054284;28;20098;-65
2021/10/29 03:45:15;;;;;;;88.88;36.78;;;3.50;99.90;;;;;;5053396;28;20496;-65
2021/10/29 03:47:51;;;;;;;78.85;34.50;;;3.40;99.90;;;;;;5054709;28;20024;-65
2021/10/29 03:50:22;;;;;;;82.05;35.28;;;3.30;99.90;;;;;;5054010;28;20441;-65
2021/10/29 03:53:03;;;;;;;79.90;35.90;;;3.30;99.90;;;;;;5054124;28;20056;-65
2021/10/29 03:55:38;;;;;;;94.80;37.95;;;3.30;99.90;;;;;;5053716;28;20035;-65
2021/10/29 03:58:08;;;;;;;88.30;37.90;;;3.30;99.90;;;;;;5053887;28;20124;-65
2021/10/29 04:00:35;;;;;;;86.93;37.03;;;3.20;99.90;;;;;;5054184;28;20025;-64
2021/10/29 04:03:03;;;;;;;90.20;37.58;;;3.20;99.90;;;;;;5050651;28;20060;-64
2021/10/29 04:05:31;;;;;;;104.88;40.90;;;3.20;99.90;;;;;;5053532;28;20084;-64
2021/10/29 04:07:57;;;;;;;102.65;42.28;;;3.30;99.90;;;;;;5053863;28;20025;-64
2021/10/29 04:10:26;;;;;;;122.78;44.75;;;3.30;99.90;;;;;;5053460;28;20036;-64
2021/10/29 04:12:53;;;;;;;104.27;42.37;;;3.40;99.90;;;;;;5034551;28;20026;-65
2021/10/29 04:15:19;;;;;;;94.45;39.00;;;3.40;99.90;;;;;;5051516;28;20334;-65
2021/10/29 04:17:44;;;;;;;101.50;40.92;;;3.30;99.90;;;;;;5053967;28;20049;-64
2021/10/29 04:20:10;;;;;;;105.00;42.33;;;3.30;99.90;;;;;;5052653;28;20521;-64
2021/10/29 04:22:36;;;;;;;100.20;39.58;;;3.20;99.90;;;;;;5053351;28;20061;-65
2021/10/29 04:25:02;;;;;;;94.32;38.38;;;3.20;99.90;;;;;;5054504;28;20385;-64
2021/10/29 04:27:31;;;;;;;87.53;38.50;;;3.20;99.90;;;;;;5052717;28;20032;-64
2021/10/29 04:29:59;;;;;;;82.13;36.15;;;3.10;99.90;;;;;;5053579;28;20032;-64
2021/10/29 04:32:25;;;;;;;78.22;34.28;;;3.10;99.90;;;;;;5052731;28;20066;-64
2021/10/29 04:34:51;;;;;;;79.90;36.40;;;3.00;99.90;;;;;;5053265;28;20112;-64
2021/10/29 04:37:17;;;;;;;83.70;35.35;;;2.90;99.90;;;;;;5053025;28;20044;-64
2021/10/29 04:39:48;;;;;;;75.07;33.40;;;2.90;99.90;;;;;;5053863;28;20029;-64
2021/10/29 04:42:16;;;;;;;76.40;32.53;;;2.80;99.90;;;;;;5052455;28;20036;-64
2021/10/29 04:44:42;;;;;;;73.55;33.40;;;2.80;99.90;;;;;;5053100;28;20501;-64
2021/10/29 04:47:10;;;;;;;85.57;35.28;;;2.70;99.90;;;;;;5051631;28;20028;-64
2021/10/29 04:49:35;;;;;;;85.18;35.53;;;2.70;99.90;;;;;;5050725;28;20032;-65
2021/10/29 04:52:01;;;;;;;94.50;38.45;;;2.70;99.90;;;;;;5050614;28;20397;-65
2021/10/29 04:54:27;;;;;;;98.85;42.45;;;2.70;99.90;;;;;;5049657;28;20033;-64
2021/10/29 04:56:52;;;;;;;91.55;40.00;;;2.70;99.90;;;;;;5050269;28;20040;-65
2021/10/29 04:59:18;;;;;;;103.43;41.90;;;2.80;99.90;;;;;;5049750;28;20036;-64
2021/10/29 05:01:46;;;;;;;98.32;40.88;;;2.80;99.90;;;;;;5051360;28;20032;-65
2021/10/29 05:04:12;;;;;;;103.95;40.28;;;2.90;99.90;;;;;;5052108;28;20025;-64
2021/10/29 05:06:39;;;;;;;95.85;38.30;;;2.90;99.90;;;;;;5053065;28;20028;-64
2021/10/29 05:09:04;;;;;;;89.65;37.05;;;2.90;99.90;;;;;;5053057;28;20473;-64
2021/10/29 05:11:30;;;;;;;79.50;35.20;;;2.80;99.90;;;;;;5050435;28;20020;-65
2021/10/29 05:13:56;;;;;;;79.63;35.85;;;2.80;99.90;;;;;;5052436;28;20036;-64
2021/10/29 05:16:21;;;;;;;80.22;34.17;;;2.70;99.90;;;;;;5051670;28;20409;-65
2021/10/29 05:18:47;;;;;;;75.15;33.72;;;2.70;99.90;;;;;;5052844;28;20536;-65
2021/10/29 05:21:13;;;;;;;75.97;33.97;;;2.60;99.90;;;;;;5051377;28;20035;-65
2021/10/29 05:23:38;;;;;;;75.35;32.83;;;2.50;99.90;;;;;;5052497;28;20103;-65
2021/10/29 05:26:04;;;;;;;68.28;32.38;;;2.50;99.90;;;;;;5052278;28;20086;-65
2021/10/29 05:28:30;;;;;;;75.80;32.75;;;2.40;99.90;;;;;;5051736;28;20613;-65
2021/10/29 05:30:56;;;;;;;81.57;33.67;;;2.40;99.90;;;;;;5052363;28;20116;-65
2021/10/29 05:33:21;;;;;;;93.18;37.35;;;2.40;99.90;;;;;;5051982;28;20377;-65
2021/10/29 05:35:47;;;;;;;105.18;41.70;;;2.40;99.90;;;;;;5052450;28;20040;-64
2021/10/29 05:38:13;;;;;;;99.70;40.20;;;2.40;99.90;;;;;;5051186;28;20095;-64
2021/10/29 05:40:38;;;;;;;87.45;37.75;;;2.50;99.90;;;;;;5051032;28;20116;-64
2021/10/29 05:43:04;;;;;;;98.25;39.13;;;2.60;99.90;;;;;;5052315;28;20033;-64
2021/10/29 05:45:30;;;;;;;97.20;39.53;;;2.60;99.90;;;;;;5050798;28;20057;-64
2021/10/29 05:48:01;;;;;;;88.72;38.50;;;2.50;99.90;;;;;;5052315;28;20036;-64
2021/10/29 05:50:27;;;;;;;91.75;38.17;;;2.60;99.90;;;;;;5051380;28;20035;-65
2021/10/29 05:52:53;;;;;;;81.65;36.92;;;2.70;99.90;;;;;;5052155;28;20370;-64
2021/10/29 05:55:19;;;;;;;80.63;34.92;;;2.60;99.90;;;;;;5050852;28;20130;-66
2021/10/29 05:57:50;;;;;;;76.72;34.30;;;2.60;99.90;;;;;;5052126;28;20036;-67
2021/10/29 06:00:21;;;;;;;76.65;35.00;;;2.60;99.90;;;;;;5050823;28;20029;-66
2021/10/29 06:02:47;;;;;;;75.22;34.90;;;2.50;99.90;;;;;;5052062;28;20025;-67
2021/10/29 06:05:14;;;;;;;77.90;34.20;;;2.50;99.90;;;;;;5051371;28;20474;-63
2021/10/29 06:07:40;;;;;;;90.10;37.05;;;2.50;99.90;;;;;;5051949;28;20025;-66
2021/10/29 06:10:08;;;;;;;74.30;33.25;;;2.50;99.90;;;;;;5051847;28;20044;-64
2021/10/29 06:12:36;;;;;;;81.00;34.53;;;2.40;99.90;;;;;;5050767;28;20074;-65
2021/10/29 06:15:04;;;;;;;68.05;32.63;;;2.40;99.90;;;;;;5041957;28;20500;-65
2021/10/29 06:17:31;;;;;;;86.78;35.83;;;2.40;99.90;;;;;;5050483;28;20028;-65
2021/10/29 06:19:57;;;;;;;102.45;39.97;;;2.30;99.90;;;;;;5051332;28;20492;-65
2021/10/29 06:22:31;;;;;;;94.43;39.17;;;2.40;99.90;;;;;;5050721;28;20037;-65
2021/10/29 06:24:59;;;;;;;90.15;38.15;;;2.40;99.90;;;;;;5051219;28;20040;-65
2021/10/29 06:29:51;;;;;;;82.00;36.60;;;2.50;99.90;;;;;;5051656;28;20391;-65
2021/10/29 06:32:20;;;;;;;91.43;40.25;;;2.60;99.90;;;;;;5050253;28;20386;-65
2021/10/29 06:34:46;;;;;;;71.68;34.30;;;2.60;99.90;;;;;;5031730;28;20034;-65
2021/10/29 06:37:15;;;;;;;79.97;36.13;;;2.70;99.90;;;;;;5048723;28;20037;-64
2021/10/29 06:39:42;;;;;;;69.78;32.97;;;2.70;99.90;;;;;;5051597;28;20033;-64
2021/10/29 06:42:13;;;;;;;66.90;32.38;;;2.80;99.90;;;;;;5050959;28;20036;-64
2021/10/29 06:45:03;;;;;;;80.25;36.45;;;2.80;99.90;;;;;;5050821;28;20056;-65
2021/10/29 06:47:46;;;;;;;81.18;35.30;;;2.80;99.90;;;;;;5030646;28;20467;-64
2021/10/29 07:01:25;;;;;;;76.63;36.00;;;3.30;99.90;;;;;;5050024;28;20036;-65
2021/10/29 07:12:28;;;;;;;78.55;37.80;;;3.70;99.90;;;;;;5041640;28;20048;-67
2021/10/29 07:40:08;;;;;;;58.38;32.70;;;5.40;99.90;;;;;;5034905;28;20068;-66
2021/10/29 07:42:43;;;;;;;59.42;33.78;;;5.60;99.90;;;;;;5045160;28;20024;-67
2021/10/29 07:45:10;;;;;;;57.15;33.78;;;5.90;99.90;;;;;;5045645;28;20050;-67
2021/10/29 07:47:37;;;;;;;48.20;26.70;;;6.00;99.90;;;;;;5045644;28;20033;-67
2021/10/29 07:50:06;;;;;;;34.47;21.95;;;6.00;99.90;;;;;;5049242;28;20068;-66
2021/10/29 07:52:32;;;;;;;27.95;18.88;;;6.00;99.90;;;;;;5053318;28;20025;-67
2021/10/29 07:54:58;;;;;;;30.95;21.30;;;6.10;99.90;;;;;;5053791;28;20061;-69
2021/10/29 07:57:24;;;;;;;25.95;17.58;;;6.20;99.90;;;;;;5052993;28;20121;-67
2021/10/29 07:59:51;;;;;;;31.67;18.15;;;6.30;99.90;;;;;;5048004;28;20087;-68
2021/10/29 08:02:18;;;;;;;29.08;18.80;;;6.40;99.90;;;;;;5033772;28;20053;-65
2021/10/29 08:04:45;;;;;;;24.45;18.10;;;6.50;99.90;;;;;;5034366;28;20033;-67
2021/10/29 08:07:11;;;;;;;26.67;18.27;;;6.60;99.90;;;;;;5038120;28;20414;-66
2021/10/29 08:09:39;;;;;;;22.25;15.95;;;6.70;99.90;;;;;;5034613;28;20588;-67
2021/10/29 08:12:05;;;;;;;22.63;13.98;;;6.90;99.90;;;;;;5049480;28;20029;-65
2021/10/29 08:14:31;;;;;;;20.02;14.23;;;7.10;99.90;;;;;;5047569;28;20033;-66
2021/10/29 08:16:57;;;;;;;19.70;13.40;;;7.30;99.90;;;;;;5049354;28;20079;-66
2021/10/29 08:19:32;;;;;;;18.27;13.60;;;7.50;99.90;;;;;;5052863;28;20051;-67
2021/10/29 08:22:00;;;;;;;16.88;11.82;;;7.60;99.90;;;;;;5054268;28;20029;-67
2021/10/29 08:24:26;;;;;;;21.75;12.98;;;7.80;99.90;;;;;;5053065;28;20021;-67
2021/10/29 08:26:52;;;;;;;17.90;12.30;;;7.90;99.90;;;;;;5053659;28;20040;-68
2021/10/29 08:29:20;;;;;;;17.75;12.98;;;8.00;99.90;;;;;;5052058;28;20043;-66
2021/10/29 08:31:48;;;;;;;18.67;13.45;;;8.10;99.90;;;;;;5053027;28;20037;-67
2021/10/29 08:34:14;;;;;;;17.50;12.07;;;8.20;99.90;;;;;;5053218;28;20409;-67
2021/10/29 08:36:41;;;;;;;22.25;12.73;;;8.30;99.90;;;;;;5052646;28;20446;-67
2021/10/29 08:39:09;;;;;;;14.38;11.18;;;8.40;99.90;;;;;;5052163;28;20036;-67
2021/10/29 08:41:36;;;;;;;17.00;12.27;;;8.40;99.90;;;;;;5052339;28;20725;-67
2021/10/29 08:44:04;;;;;;;19.58;12.68;;;8.40;99.90;;;;;;5052491;28;20053;-69
2021/10/29 08:46:31;;;;;;;17.65;12.13;;;8.30;99.90;;;;;;5052050;28;20068;-67
2021/10/29 08:48:58;;;;;;;17.80;12.13;;;8.30;99.90;;;;;;5053133;28;20064;-67
2021/10/29 08:51:24;;;;;;;19.70;12.82;;;8.30;99.90;;;;;;5049480;28;20367;-65
2021/10/29 08:53:52;;;;;;;16.60;11.85;;;8.20;99.90;;;;;;5045280;28;20382;-65
2021/10/29 08:56:20;;;;;;;18.67;12.50;;;8.20;99.90;;;;;;5047821;28;20052;-64
2021/10/29 08:59:16;;;;;;;17.52;12.88;;;8.30;99.90;;;;;;5053122;28;20500;-65
2021/10/29 09:02:36;;;;;;;16.17;12.23;;;8.30;99.90;;;;;;5052856;28;20530;-65
2021/10/29 09:07:50;;;;;;;18.33;12.88;;;8.60;99.90;;;;;;5051712;28;20040;-66
2021/10/29 09:32:44;;;;;;;16.73;12.65;;;9.50;99.90;;;;;;5051775;28;20627;-65
2021/10/29 09:35:16;;;;;;;15.82;12.35;;;9.60;99.90;;;;;;5052137;28;20044;-65
2021/10/29 09:38:18;;;;;;;17.27;11.50;;;9.80;99.90;;;;;;5051634;28;20029;-65
2021/10/29 09:41:01;;;;;;;18.75;14.82;;;9.90;99.90;;;;;;5051506;28;20040;-65
2021/10/29 09:43:31;;;;;;;21.95;13.52;;;10.00;99.90;;;;;;5041428;28;20033;-65
2021/10/29 09:46:06;;;;;;;23.02;12.60;;;10.00;99.90;;;;;;5051592;28;20388;-64
2021/10/29 09:48:45;;;;;;;18.10;13.10;;;10.10;99.90;;;;;;5043386;28;20578;-65
2021/10/29 09:51:15;;;;;;;17.10;13.27;;;10.20;99.90;;;;;;5051524;28;20043;-65
2021/10/29 09:54:03;;;;;;;16.02;12.57;;;10.30;99.90;;;;;;5050918;28;20214;-64
2021/10/29 09:58:59;;;;;;;17.60;11.77;;;10.60;99.90;;;;;;5052181;28;20029;-64
2021/10/29 10:01:27;;;;;;;17.83;12.35;;;10.70;99.90;;;;;;5050716;28;20029;-64
2021/10/29 10:03:54;;;;;;;19.27;13.40;;;10.80;99.90;;;;;;5052139;28;20029;-64
2021/10/29 10:06:24;;;;;;;21.55;13.50;;;10.90;99.90;;;;;;5051222;28;20116;-64
2021/10/29 10:08:55;;;;;;;16.70;12.73;;;11.00;99.90;;;;;;5051089;28;20029;-64
2021/10/29 10:11:26;;;;;;;17.10;12.85;;;11.10;99.90;;;;;;5050873;28;20120;-64
2021/10/29 10:13:56;;;;;;;18.60;13.98;;;11.20;99.90;;;;;;5051832;28;20025;-64
2021/10/29 10:16:23;;;;;;;17.02;13.18;;;11.30;99.90;;;;;;5053412;28;20072;-64
2021/10/29 10:18:49;;;;;;;18.40;13.13;;;11.30;99.90;;;;;;5052098;28;20112;-65
2021/10/29 10:21:20;;;;;;;19.73;14.13;;;11.30;99.90;;;;;;5052078;28;20032;-65
2021/10/29 10:23:49;;;;;;;22.40;14.57;;;11.40;99.90;;;;;;5051662;28;20017;-65
2021/10/29 10:26:47;;;;;;;22.25;13.20;;;11.30;99.90;;;;;;5051507;28;20056;-65
2021/10/29 10:29:23;;;;;;;74.30;19.02;;;11.40;99.90;;;;;;5051168;28;20436;-65
2021/10/29 10:41:00;;;;;;;22.88;14.60;;;11.50;99.90;;;;;;5051247;28;20071;-64
2021/10/29 10:54:30;;;;;;;16.98;13.82;;;12.30;99.90;;;;;;5051413;28;20170;-64
2021/10/29 11:00:14;;;;;;;21.90;13.10;;;12.50;99.90;;;;;;5050780;28;20029;-63
2021/10/29 11:05:29;;;;;;;15.25;11.63;;;12.80;99.90;;;;;;5051065;28;20119;-64
2021/10/29 11:11:00;;;;;;;19.80;12.75;;;12.90;99.90;;;;;;5049231;28;19908;-63
2021/10/29 11:13:46;;;;;;;19.80;13.48;;;13.10;99.90;;;;;;5050485;28;20033;-68
2021/10/29 11:16:39;;;;;;;20.25;12.65;;;13.30;99.90;;;;;;5050595;28;20041;-64
2021/10/29 11:19:19;;;;;;;18.95;13.52;;;13.30;99.90;;;;;;5050793;28;20047;-64
2021/10/29 11:21:52;;;;;;;20.30;13.23;;;13.50;99.90;;;;;;5049451;28;20033;-65
2021/10/29 11:24:31;;;;;;;18.40;12.15;;;13.50;99.90;;;;;;5034168;28;20126;-64
2021/10/29 11:27:06;;;;;;;16.50;13.20;;;13.60;99.90;;;;;;5051026;28;20035;-64
2021/10/29 11:29:44;;;;;;;20.55;13.48;;;13.60;99.90;;;;;;5050252;28;20263;-64
2021/10/29 11:32:11;;;;;;;21.48;13.82;;;13.60;99.90;;;;;;5030968;28;20026;-64
2021/10/29 11:34:37;;;;;;;16.35;11.45;;;13.70;99.90;;;;;;5034596;28;20411;-64
2021/10/29 11:37:03;;;;;;;19.70;12.98;;;13.80;99.90;;;;;;5050554;28;20029;-64
2021/10/29 11:39:29;;;;;;;18.92;13.00;;;13.90;99.90;;;;;;5049910;28;20033;-64
2021/10/29 11:41:55;;;;;;;16.88;12.50;;;14.00;99.90;;;;;;5050340;28;20032;-64
2021/10/29 11:44:23;;;;;;;17.88;11.85;;;14.00;99.90;;;;;;5050223;28;20057;-64
2021/10/29 11:46:50;;;;;;;16.50;12.13;;;14.10;99.90;;;;;;5049205;28;20028;-71
2021/10/29 11:49:39;;;;;;;22.52;11.93;;;14.30;99.90;;;;;;5049463;28;20028;-72
2021/10/29 11:52:06;;;;;;;22.48;13.10;;;14.30;99.90;;;;;;5050210;28;20071;-71
2021/10/29 11:54:38;;;;;;;18.58;13.25;;;14.60;99.90;;;;;;5052401;28;20032;-72
2021/10/29 12:07:32;;;;;;;19.42;11.90;;;14.80;99.90;;;;;;5054060;28;20036;-67
2021/10/29 12:10:04;;;;;;;17.52;11.27;;;14.90;99.90;;;;;;5053848;28;20386;-65
2021/10/29 12:12:35;;;;;;;16.67;12.48;;;14.90;99.90;;;;;;5052783;28;20344;-81
2021/10/29 12:15:09;;;;;;;13.93;10.15;;;15.00;99.90;;;;;;5053828;28;20054;-85
2021/10/29 12:20:48;;;;;;;13.82;11.02;;;15.50;99.90;;;;;;5048193;28;20392;-68
2021/10/29 12:23:18;;;;;;;15.77;10.60;;;15.70;99.90;;;;;;5053499;28;20116;-72
2021/10/29 12:28:19;;;;;;;12.68;9.10;;;16.20;99.90;;;;;;5053649;28;20022;-71
2021/10/29 12:36:57;;;;;;;9.73;7.47;;;17.50;99.90;;;;;;5053042;28;20533;-72
2021/10/29 12:53:28;;;;;;;7.57;5.35;;;19.70;91.70;;;;;;5052259;28;20032;-68
2021/10/29 13:02:01;;;;;;;9.10;6.18;;;19.80;95.10;;;;;;5052297;28;20325;-69
2021/10/29 13:04:47;;;;;;;8.75;6.63;;;19.80;94.50;;;;;;5051787;28;20025;-69
2021/10/29 13:07:13;;;;;;;7.93;5.90;;;19.90;93.40;;;;;;5052903;28;20027;-69
2021/10/29 13:09:40;;;;;;;6.47;5.88;;;19.90;92.80;;;;;;5053774;28;20033;-68
2021/10/29 13:14:39;;;;;;;6.47;5.40;;;19.70;92.30;;;;;;5052030;28;20041;-67
2021/10/29 13:17:11;;;;;;;6.30;4.85;;;19.50;92.20;;;;;;5052521;28;20068;-68
2021/10/29 14:32:40;;;;;;;8.77;5.68;;;16.00;94.80;;;;;;5049636;28;19944;-67
2021/10/29 14:35:00;;;;;;;8.20;6.35;;;15.90;95.10;;;;;;5050781;28;20152;-67
2021/10/29 14:40:17;;;;;;;9.23;7.30;;;15.70;96.10;;;;;;5051263;28;20043;-67
2021/10/29 14:42:49;;;;;;;15.35;7.18;;;15.60;96.30;;;;;;5050345;28;20056;-67
2021/10/29 14:45:27;;;;;;;9.90;6.30;;;15.50;96.00;;;;;;5051272;28;20178;-67
2021/10/29 15:28:40;;;;;;;7.07;5.10;;;13.60;99.90;;;;;;5029590;28;20490;-67
2021/10/29 15:31:26;;;;;;;10.07;5.60;;;13.50;99.90;;;;;;5047433;28;20083;-67
2021/10/29 15:42:22;;;;;;;7.40;5.55;;;12.90;99.90;;;;;;5054576;28;20086;-67
2021/10/29 15:44:57;;;;;;;7.93;5.57;;;12.80;99.90;;;;;;5053427;28;20116;-66
2021/10/29 15:47:43;;;;;;;7.18;5.05;;;12.60;99.90;;;;;;5054381;28;20025;-67
2021/10/29 15:50:11;;;;;;;9.32;6.18;;;12.50;99.90;;;;;;5054780;28;20087;-77
2021/10/29 15:52:37;;;;;;;9.35;5.72;;;12.40;99.90;;;;;;5053844;28;20128;-81
2021/10/29 15:55:08;;;;;;;9.43;6.65;;;12.20;99.90;;;;;;5053985;28;20025;-80
2021/10/29 15:57:46;;;;;;;9.50;5.88;;;12.20;99.90;;;;;;5053370;28;20039;-73
2021/10/29 16:01:01;;;;;;;8.10;6.07;;;12.10;99.90;;;;;;5054125;28;20099;-74
2021/10/29 16:03:12;;;;;;;;;;;12.00;99.90;;;;;;5051211;28;20489;-75
2021/10/29 16:19:18;;;;;;;12.93;7.20;;;11.30;99.90;;;;;;5052927;28;20041;-75
2021/10/29 16:21:45;;;;;;;13.98;6.45;;;11.10;99.90;;;;;;5053062;28;20021;-67
2021/10/29 16:24:11;;;;;;;13.43;7.65;;;11.10;99.90;;;;;;5052941;28;20370;-67
2021/10/29 16:26:37;;;;;;;11.05;7.75;;;11.00;99.90;;;;;;5052042;28;20035;-67
2021/10/29 16:29:06;;;;;;;12.10;6.90;;;10.90;99.90;;;;;;5053434;28;20029;-67
2021/10/29 16:31:37;;;;;;;11.93;7.70;;;10.80;99.90;;;;;;5052673;28;20116;-67
2021/10/29 16:34:02;;;;;;;10.93;6.65;;;10.70;99.90;;;;;;5053251;28;20041;-67
2021/10/29 16:36:28;;;;;;;10.50;7.05;;;10.60;99.90;;;;;;5053031;28;20112;-84
2021/10/29 16:38:54;;;;;;;10.45;7.30;;;10.50;99.90;;;;;;5051299;28;20033;-72
2021/10/29 16:41:19;;;;;;;10.05;6.88;;;10.40;99.90;;;;;;5052983;28;20024;-66
2021/10/29 16:43:45;;;;;;;11.32;7.80;;;10.40;99.90;;;;;;5052146;28;20414;-73
2021/10/29 16:46:12;;;;;;;9.65;7.13;;;10.30;99.90;;;;;;5053369;28;20043;-70
2021/10/29 16:48:37;;;;;;;13.65;8.15;;;10.30;99.90;;;;;;5052296;28;20445;-73
2021/10/29 16:51:04;;;;;;;13.60;7.45;;;10.20;99.90;;;;;;5053150;28;20462;-66
2021/10/29 16:53:36;;;;;;;11.27;7.93;;;10.20;99.90;;;;;;5052976;28;20033;-68
2021/10/29 16:56:03;;;;;;;13.05;7.03;;;10.10;99.90;;;;;;5052670;28;20043;-66
2021/10/29 16:58:29;;;;;;;12.50;7.93;;;10.10;99.90;;;;;;5052358;28;20044;-66
2021/10/29 17:00:55;;;;;;;17.52;8.00;;;10.10;99.90;;;;;;5052436;28;20029;-66
2021/10/29 17:03:21;;;;;;;14.15;8.13;;;10.00;99.90;;;;;;5052979;28;20382;-68
2021/10/29 17:05:46;;;;;;;10.57;7.70;;;10.00;99.90;;;;;;5051870;28;20150;-66
2021/10/29 17:08:15;;;;;;;10.90;7.65;;;10.00;99.90;;;;;;5053010;28;20033;-66
2021/10/29 17:10:41;;;;;;;11.90;8.07;;;10.00;99.90;;;;;;5051915;28;20021;-69
2021/10/29 17:13:07;;;;;;;12.48;7.20;;;10.00;99.90;;;;;;5052408;28;20509;-69
2021/10/29 17:15:35;;;;;;;13.30;7.28;;;9.90;99.90;;;;;;5052125;28;20557;-69
2021/10/29 17:18:03;;;;;;;12.95;8.07;;;9.90;99.90;;;;;;5052459;28;20496;-69
2021/10/29 17:20:29;;;;;;;15.48;9.10;;;9.80;99.90;;;;;;5052581;28;20466;-73
2021/10/29 17:22:55;;;;;;;15.40;8.77;;;9.70;99.90;;;;;;5050763;28;20044;-68
2021/10/29 17:25:20;;;;;;;20.92;11.43;;;9.70;99.90;;;;;;5052127;28;20112;-67
2021/10/29 17:27:47;;;;;;;17.30;9.27;;;9.70;99.90;;;;;;5051159;28;20532;-66
2021/10/29 17:30:15;;;;;;;18.25;12.30;;;9.80;99.90;;;;;;5053066;28;20458;-67
2021/10/29 17:32:46;;;;;;;22.65;13.88;;;9.80;99.90;;;;;;5051931;28;20417;-71
2021/10/29 17:35:12;;;;;;;19.73;11.23;;;9.90;99.90;;;;;;5052546;28;20123;-70